createdAt,value
2023-04-02T00:47:10.926Z,94393.00
2023-04-02T00:48:11.955Z,94393.00
2023-04-02T00:49:11.961Z,94393.00
2023-04-02T00:50:11.984Z,94395.00
2023-04-02T00:51:11.994Z,94395.00
2023-04-02T00:52:12.013Z,94391.00
2023-04-02T00:53:12.405Z,94395.00
2023-04-02T00:54:12.026Z,94393.00
2023-04-02T00:55:12.905Z,94393.00
2023-04-02T00:56:12.060Z,94395.00
2023-04-02T00:57:12.447Z,94393.00
2023-04-02T00:58:12.087Z,94395.00
2023-04-02T00:59:12.128Z,94395.00
2023-04-02T01:00:12.126Z,94395.00
2023-04-02T01:01:12.944Z,94395.00
2023-04-02T01:02:12.183Z,94391.00
2023-04-02T01:03:12.265Z,94393.00
2023-04-02T01:04:12.196Z,94391.00
2023-04-02T01:05:12.248Z,94391.00
2023-04-02T01:06:12.322Z,94391.00
2023-04-02T01:07:12.398Z,94383.00
2023-04-02T01:08:12.458Z,94383.00
2023-04-02T01:09:12.520Z,94391.00
2023-04-02T01:10:12.591Z,94391.00
2023-04-02T01:11:12.667Z,94381.00
2023-04-02T01:12:12.745Z,94391.00
2023-04-02T01:13:12.806Z,94383.00
2023-04-02T01:14:12.874Z,94391.00
2023-04-02T01:15:12.962Z,94383.00
2023-04-02T01:16:13.030Z,94397.00
2023-04-02T01:17:14.115Z,94395.00
2023-04-02T01:18:13.147Z,94397.00
2023-04-02T01:19:13.229Z,94395.00
2023-04-02T01:20:13.284Z,94397.00
2023-04-02T01:21:13.344Z,94397.00
2023-04-02T01:22:13.394Z,94397.00
2023-04-02T01:23:14.120Z,94397.00
2023-04-02T01:24:13.525Z,94395.00
2023-04-02T01:25:13.600Z,94395.00
2023-04-02T01:26:13.655Z,94395.00
2023-04-02T01:27:14.074Z,94397.00
2023-04-02T01:28:14.131Z,94398.00
2023-04-02T01:29:14.177Z,94397.00
2023-04-02T01:30:14.138Z,94395.00
2023-04-02T01:32:00.736Z,94397.00
2023-04-02T01:33:02.154Z,94397.00
2023-04-02T01:34:02.092Z,94395.00
2023-04-02T01:35:02.137Z,94397.00
2023-04-02T01:36:02.140Z,94397.00
2023-04-02T01:37:02.111Z,94400.00
2023-04-02T01:38:02.118Z,94402.00
2023-04-02T01:39:02.124Z,94400.00
2023-04-02T01:40:02.120Z,94400.00
2023-04-02T01:41:02.121Z,94402.00
2023-04-02T01:42:02.116Z,94402.00
2023-04-02T01:43:02.119Z,94402.00
2023-04-02T01:44:02.122Z,94404.00
2023-04-02T01:45:02.130Z,94406.00
2023-04-02T01:46:02.117Z,94406.00
2023-04-02T01:47:02.484Z,94406.00
2023-04-02T01:48:02.191Z,94404.00
2023-04-02T01:49:02.128Z,94404.00
2023-04-02T01:50:02.132Z,94404.00
2023-04-02T01:51:02.142Z,94412.00
2023-04-02T01:52:02.117Z,94414.00
2023-04-02T01:53:02.488Z,94414.00
2023-04-02T01:54:02.137Z,94416.00
2023-04-02T01:55:02.161Z,94414.00
2023-04-02T01:56:03.003Z,94416.00
2023-04-02T01:57:09.035Z,94414.00
2023-04-02T01:58:02.112Z,94416.00
2023-04-02T01:59:02.123Z,94416.00
2023-04-02T02:00:02.492Z,94414.00
2023-04-02T02:01:02.170Z,94416.00
2023-04-02T02:02:02.119Z,94420.00
2023-04-02T02:03:02.150Z,94420.00
2023-04-02T02:04:02.127Z,94424.00
2023-04-02T02:05:02.109Z,94422.00
2023-04-02T02:06:02.177Z,94424.00
2023-04-02T02:07:03.028Z,94424.00
2023-04-02T02:08:02.115Z,94428.00
2023-04-02T02:09:02.174Z,94428.00
2023-04-02T02:10:02.252Z,94428.00
2023-04-02T02:11:03.009Z,94430.00
2023-04-02T02:12:02.345Z,94432.00
2023-04-02T02:13:02.407Z,94432.00
2023-04-02T02:14:02.462Z,94432.00
2023-04-02T02:15:03.017Z,94432.00
2023-04-02T02:16:02.612Z,94434.00
2023-04-02T02:17:03.017Z,94438.00
2023-04-02T02:18:03.018Z,94438.00
2023-04-02T02:19:03.028Z,94438.00
2023-04-02T02:20:03.009Z,94438.00
2023-04-02T02:21:03.014Z,94436.00
2023-04-02T02:22:03.030Z,94434.00
2023-04-02T02:23:03.045Z,94436.00
2023-04-02T02:24:03.034Z,94432.00
2023-04-02T02:25:03.090Z,94432.00
2023-04-02T02:26:03.173Z,94434.00
2023-04-02T02:27:03.239Z,94436.00
2023-04-02T02:28:03.299Z,94436.00
2023-04-02T02:29:03.360Z,94440.00
2023-04-02T02:30:03.413Z,94440.00
2023-04-02T02:31:03.486Z,94442.00
2023-04-02T02:32:04.102Z,94442.00
2023-04-02T02:33:03.626Z,94440.00
2023-04-02T02:34:03.662Z,94440.00
2023-04-02T02:35:03.738Z,94440.00
2023-04-02T02:36:03.867Z,94445.00
2023-04-02T02:37:03.850Z,94444.00
2023-04-02T02:38:03.919Z,94445.00
2023-04-02T02:39:03.990Z,94447.00
2023-04-02T02:40:04.042Z,94449.00
2023-04-02T02:41:07.014Z,94449.00
2023-04-02T02:42:04.080Z,94449.00
2023-04-02T02:43:04.093Z,94449.00
2023-04-02T02:44:04.076Z,94449.00
2023-04-02T02:45:07.008Z,94451.00
2023-04-02T02:46:04.128Z,94451.00
2023-04-02T02:47:05.006Z,94451.00
2023-04-02T02:48:04.136Z,94453.00
2023-04-02T02:49:04.057Z,94453.00
2023-04-02T02:50:07.008Z,94453.00
2023-04-02T02:51:04.051Z,94457.00
2023-04-02T02:52:05.005Z,94457.00
2023-04-02T02:53:04.058Z,94461.00
2023-04-02T02:54:04.080Z,94461.00
2023-04-02T02:55:04.091Z,94461.00
2023-04-02T02:56:04.069Z,94459.00
2023-04-02T02:57:04.163Z,94463.00
2023-04-02T02:58:04.074Z,94465.00
2023-04-02T02:59:04.083Z,94465.00
2023-04-02T03:00:04.080Z,94469.00
2023-04-02T03:01:04.166Z,94465.00
2023-04-02T03:02:04.095Z,94467.00
2023-04-02T03:03:04.361Z,94469.00
2023-04-02T03:04:04.356Z,94469.00
2023-04-02T03:05:04.279Z,94467.00
2023-04-02T03:06:04.341Z,94469.00
2023-04-02T03:07:04.398Z,94469.00
2023-04-02T03:08:05.014Z,94471.00
2023-04-02T03:09:04.560Z,94471.00
2023-04-02T03:10:04.573Z,94473.00
2023-04-02T03:11:04.669Z,94471.00
2023-04-02T03:12:04.698Z,94473.00
2023-04-02T03:13:04.756Z,94471.00
2023-04-02T03:14:05.020Z,94471.00
2023-04-02T03:15:04.875Z,94471.00
2023-04-02T03:16:05.543Z,94471.00
2023-04-02T03:17:04.992Z,94469.00
2023-04-02T03:18:05.070Z,94469.00
2023-04-02T03:19:05.110Z,94471.00
2023-04-02T03:20:05.168Z,94473.00
2023-04-02T03:21:05.531Z,94475.00
2023-04-02T03:22:05.303Z,94475.00
2023-04-02T03:23:05.348Z,94481.00
2023-04-02T03:24:05.413Z,94481.00
2023-04-02T03:25:05.480Z,94485.00
2023-04-02T03:26:05.535Z,94485.00
2023-04-02T03:27:05.656Z,94485.00
2023-04-02T03:28:05.672Z,94485.00
2023-04-02T03:29:06.522Z,94485.00
2023-04-02T03:30:05.791Z,94483.00
2023-04-02T03:31:05.868Z,94485.00
2023-04-02T03:32:05.878Z,94483.00
2023-04-02T03:33:06.035Z,94485.00
2023-04-02T03:34:05.993Z,94485.00
2023-04-02T03:35:06.053Z,94489.00
2023-04-02T03:36:06.121Z,94489.00
2023-04-02T03:37:06.164Z,94491.00
2023-04-02T03:38:06.220Z,94493.00
2023-04-02T03:39:06.286Z,94495.00
2023-04-02T03:40:07.028Z,94497.00
2023-04-02T03:41:06.424Z,94497.00
2023-04-02T03:42:06.449Z,94497.00
2023-04-02T03:43:06.539Z,94499.00
2023-04-02T03:44:07.536Z,94500.00
2023-04-02T03:45:06.624Z,94500.00
2023-04-02T03:46:07.542Z,94500.00
2023-04-02T03:47:06.734Z,94500.00
2023-04-02T03:48:06.801Z,94500.00
2023-04-02T03:49:06.854Z,94502.00
2023-04-02T03:50:06.909Z,94502.00
2023-04-02T03:51:07.034Z,94502.00
2023-04-02T03:52:07.025Z,94504.00
2023-04-02T03:53:07.070Z,94504.00
2023-04-02T03:54:07.136Z,94508.00
2023-04-02T03:55:07.188Z,94508.00
2023-04-02T03:56:07.251Z,94508.00
2023-04-02T03:57:07.334Z,94508.00
2023-04-02T03:58:07.366Z,94508.00
2023-04-02T03:59:10.057Z,94508.00
2023-04-02T04:00:07.467Z,94510.00
2023-04-02T04:01:07.460Z,94512.00
2023-04-02T04:02:07.455Z,94514.00
2023-04-02T04:03:07.464Z,94516.00
2023-04-02T04:04:07.477Z,94518.00
2023-04-02T04:05:07.456Z,94518.00
2023-04-02T04:06:07.462Z,94520.00
2023-04-02T04:07:07.475Z,94518.00
2023-04-02T04:08:07.471Z,94518.00
2023-04-02T04:09:07.508Z,94518.00
2023-04-02T04:10:07.473Z,94518.00
2023-04-02T04:11:07.536Z,94516.00
2023-04-02T04:12:07.482Z,94518.00
2023-04-02T04:13:07.482Z,94516.00
2023-04-02T04:14:07.514Z,94516.00
2023-04-02T04:15:07.508Z,94518.00
2023-04-02T04:16:07.513Z,94518.00
2023-04-02T04:17:07.496Z,94522.00
2023-04-02T04:18:07.600Z,94522.00
2023-04-02T04:19:07.483Z,94526.00
2023-04-02T04:20:07.489Z,94528.00
2023-04-02T04:21:07.491Z,94528.00
2023-04-02T04:22:07.502Z,94530.00
2023-04-02T04:23:07.496Z,94530.00
2023-04-02T04:24:07.500Z,94530.00
2023-04-02T04:25:07.527Z,94528.00
2023-04-02T04:26:07.503Z,94530.00
2023-04-02T04:27:07.561Z,94530.00
2023-04-02T04:28:07.636Z,94530.00
2023-04-02T04:29:07.671Z,94532.00
2023-04-02T04:30:08.082Z,94534.00
2023-04-02T04:31:08.145Z,94536.00
2023-04-02T04:32:08.155Z,94536.00
2023-04-02T04:33:08.157Z,94538.00
2023-04-02T04:34:08.114Z,94540.00
2023-04-02T04:35:08.121Z,94542.00
2023-04-02T04:36:08.152Z,94542.00
2023-04-02T04:37:08.144Z,94542.00
2023-04-02T04:38:08.203Z,94544.00
2023-04-02T04:39:08.276Z,94547.00
2023-04-02T04:40:08.309Z,94547.00
2023-04-02T04:41:08.373Z,94547.00
2023-04-02T04:42:08.442Z,94549.00
2023-04-02T04:43:08.493Z,94553.00
2023-04-02T04:44:08.547Z,94555.00
2023-04-02T04:45:08.602Z,94557.00
2023-04-02T04:46:09.103Z,94561.00
2023-04-02T04:47:09.073Z,94561.00
2023-04-02T04:48:09.065Z,94563.00
2023-04-02T04:49:09.042Z,94563.00
2023-04-02T04:50:09.055Z,94565.00
2023-04-02T04:51:09.050Z,94567.00
2023-04-02T04:52:09.052Z,94569.00
2023-04-02T04:53:09.097Z,94569.00
2023-04-02T04:54:09.143Z,94571.00
2023-04-02T04:55:09.193Z,94573.00
2023-04-02T04:56:18.893Z,94575.00
2023-04-02T04:57:09.292Z,94575.00
2023-04-02T04:58:09.252Z,94575.00
2023-04-02T04:59:09.249Z,94577.00
2023-04-02T05:00:09.262Z,94575.00
2023-04-02T05:01:09.317Z,94577.00
2023-04-02T05:02:09.249Z,94575.00
2023-04-02T05:03:09.286Z,94579.00
2023-04-02T05:04:09.269Z,94581.00
2023-04-02T05:05:09.247Z,94577.00
2023-04-02T05:06:09.253Z,94579.00
2023-04-02T05:07:09.263Z,94577.00
2023-04-02T05:08:09.251Z,94579.00
2023-04-02T05:09:09.223Z,94579.00
2023-04-02T05:10:09.218Z,94577.00
2023-04-02T05:11:09.209Z,94579.00
2023-04-02T05:12:09.214Z,94579.00
2023-04-02T05:13:09.216Z,94579.00
2023-04-02T05:14:09.224Z,94579.00
2023-04-02T05:15:09.220Z,94581.00
2023-04-02T05:16:09.254Z,94579.00
2023-04-02T05:17:09.216Z,94583.00
2023-04-02T05:18:09.216Z,94581.00
2023-04-02T05:19:09.251Z,94583.00
2023-04-02T05:20:09.213Z,94585.00
2023-04-02T05:21:09.216Z,94585.00
2023-04-02T05:22:09.263Z,94587.00
2023-04-02T05:23:09.362Z,94587.00
2023-04-02T05:24:09.399Z,94591.00
2023-04-02T05:25:09.454Z,94593.00
2023-04-02T05:26:09.520Z,94593.00
2023-04-02T05:27:09.581Z,94589.00
2023-04-02T05:28:09.653Z,94589.00
2023-04-02T05:29:09.690Z,94591.00
2023-04-02T05:30:10.124Z,94591.00
2023-04-02T05:31:10.618Z,94591.00
2023-04-02T05:32:10.570Z,94594.00
2023-04-02T05:33:09.928Z,94596.00
2023-04-02T05:34:09.957Z,94596.00
2023-04-02T05:35:10.019Z,94598.00
2023-04-02T05:36:10.096Z,94602.00
2023-04-02T05:37:10.102Z,94602.00
2023-04-02T05:38:10.186Z,94602.00
2023-04-02T05:39:10.226Z,94602.00
2023-04-02T05:40:10.287Z,94604.00
2023-04-02T05:41:10.350Z,94606.00
2023-04-02T05:42:10.402Z,94606.00
2023-04-02T05:43:10.512Z,94608.00
2023-04-02T05:44:10.528Z,94612.00
2023-04-02T05:45:10.609Z,94610.00
2023-04-02T05:46:10.679Z,94610.00
2023-04-02T05:47:10.711Z,94612.00
2023-04-02T05:48:10.774Z,94614.00
2023-04-02T05:49:10.847Z,94614.00
2023-04-02T05:50:10.908Z,94614.00
2023-04-02T05:51:10.996Z,94616.00
2023-04-02T05:52:11.050Z,94616.00
2023-04-02T05:53:11.087Z,94616.00
2023-04-02T05:54:11.133Z,94618.00
2023-04-02T05:55:11.194Z,94620.00
2023-04-02T05:56:11.257Z,94620.00
2023-04-02T05:57:12.128Z,94622.00
2023-04-02T05:58:33.920Z,94622.00
2023-04-02T05:59:11.408Z,94626.00
2023-04-02T06:00:11.376Z,94626.00
2023-04-02T06:01:11.429Z,94628.00
2023-04-02T06:02:11.433Z,94630.00
2023-04-02T06:03:11.470Z,94632.00
2023-04-02T06:04:11.411Z,94632.00
2023-04-02T06:05:11.387Z,94634.00
2023-04-02T06:06:13.263Z,94634.00
2023-04-02T06:07:11.390Z,94634.00
2023-04-02T06:08:11.431Z,94640.00
2023-04-02T06:09:11.357Z,94638.00
2023-04-02T06:10:11.362Z,94647.00
2023-04-02T06:11:11.363Z,94649.00
2023-04-02T06:12:11.359Z,94649.00
2023-04-02T06:13:11.375Z,94647.00
2023-04-02T06:14:11.355Z,94651.00
2023-04-02T06:15:11.359Z,94653.00
2023-04-02T06:16:11.383Z,94653.00
2023-04-02T06:17:11.347Z,94657.00
2023-04-02T06:18:11.342Z,94657.00
2023-04-02T06:19:11.590Z,94657.00
2023-04-02T06:20:11.334Z,94659.00
2023-04-02T06:21:11.337Z,94659.00
2023-04-02T06:22:11.328Z,94661.00
2023-04-02T06:23:11.352Z,94659.00
2023-04-02T06:24:11.316Z,94659.00
2023-04-02T06:25:11.312Z,94659.00
2023-04-02T06:26:11.307Z,94661.00
2023-04-02T06:27:11.299Z,94659.00
2023-04-02T06:28:11.592Z,94661.00
2023-04-02T06:29:11.287Z,94661.00
2023-04-02T06:30:11.315Z,94657.00
2023-04-02T06:31:11.425Z,94659.00
2023-04-02T06:32:11.419Z,94659.00
2023-04-02T06:33:11.460Z,94659.00
2023-04-02T06:34:11.497Z,94659.00
2023-04-02T06:35:11.533Z,94659.00
2023-04-02T06:36:11.609Z,94657.00
2023-04-02T06:37:11.617Z,94657.00
2023-04-02T06:38:11.657Z,94659.00
2023-04-02T06:39:11.744Z,94659.00
2023-04-02T06:40:12.594Z,94659.00
2023-04-02T06:41:14.614Z,94663.00
2023-04-02T06:42:12.604Z,94661.00
2023-04-02T06:43:11.814Z,94659.00
2023-04-02T06:44:11.792Z,94661.00
2023-04-02T06:45:11.782Z,94659.00
2023-04-02T06:46:11.963Z,94663.00
2023-04-02T06:47:14.598Z,94665.00
2023-04-02T06:48:11.791Z,94665.00
2023-04-02T06:49:11.767Z,94665.00
2023-04-02T06:50:11.751Z,94667.00
2023-04-02T06:51:11.741Z,94667.00
2023-04-02T06:52:11.736Z,94669.00
2023-04-02T06:53:11.738Z,94669.00
2023-04-02T06:54:11.739Z,94671.00
2023-04-02T06:55:18.711Z,94673.00
2023-04-02T06:56:11.713Z,94671.00
2023-04-02T06:57:11.749Z,94675.00
2023-04-02T06:58:11.702Z,94675.00
2023-04-02T06:59:11.730Z,94675.00
2023-04-02T07:00:11.696Z,94675.00
2023-04-02T07:01:12.145Z,94673.00
2023-04-02T07:02:11.685Z,94673.00
2023-04-02T07:03:11.710Z,94673.00
2023-04-02T07:04:12.114Z,94671.00
2023-04-02T07:05:11.950Z,94671.00
2023-04-02T07:06:12.608Z,94669.00
2023-04-02T07:07:11.788Z,94671.00
2023-04-02T07:08:12.601Z,94673.00
2023-04-02T07:09:11.871Z,94673.00
2023-04-02T07:10:11.926Z,94671.00
2023-04-02T07:11:11.983Z,94671.00
2023-04-02T07:12:12.108Z,94673.00
2023-04-02T07:13:12.059Z,94673.00
2023-04-02T07:14:13.105Z,94675.00
2023-04-02T07:15:12.174Z,94675.00
2023-04-02T07:16:13.151Z,94677.00
2023-04-02T07:17:12.256Z,94675.00
2023-04-02T07:18:12.300Z,94677.00
2023-04-02T07:19:12.351Z,94673.00
2023-04-02T07:20:12.395Z,94675.00
2023-04-02T07:21:12.614Z,94675.00
2023-04-02T07:22:12.464Z,94675.00
2023-04-02T07:23:12.527Z,94677.00
2023-04-02T07:24:12.613Z,94679.00
2023-04-02T07:25:12.639Z,94677.00
2023-04-02T07:26:12.706Z,94675.00
2023-04-02T07:27:12.782Z,94679.00
2023-04-02T07:28:12.814Z,94677.00
2023-04-02T07:29:13.144Z,94681.00
2023-04-02T07:30:12.917Z,94679.00
2023-04-02T07:31:13.065Z,94681.00
2023-04-02T07:32:19.638Z,94681.00
2023-04-02T07:33:13.160Z,94677.00
2023-04-02T07:34:13.110Z,94681.00
2023-04-02T07:35:13.606Z,94681.00
2023-04-02T07:36:13.062Z,94679.00
2023-04-02T07:37:13.041Z,94679.00
2023-04-02T07:38:13.025Z,94683.00
2023-04-02T07:39:13.022Z,94687.00
2023-04-02T07:40:13.019Z,94687.00
2023-04-02T07:41:13.023Z,94689.00
2023-04-02T07:42:13.612Z,94685.00
2023-04-02T07:43:13.051Z,94687.00
2023-04-02T07:44:13.613Z,94687.00
2023-04-02T07:45:13.014Z,94693.00
2023-04-02T07:46:13.038Z,94694.00
2023-04-02T07:47:13.019Z,94694.00
2023-04-02T07:48:13.138Z,94694.00
2023-04-02T07:49:13.076Z,94691.00
2023-04-02T07:50:14.139Z,94698.00
2023-04-02T07:51:13.190Z,94693.00
2023-04-02T07:52:13.258Z,94698.00
2023-04-02T07:53:13.323Z,94694.00
2023-04-02T07:54:13.388Z,94696.00
2023-04-02T07:55:14.151Z,94696.00
2023-04-02T07:56:14.148Z,94696.00
2023-04-02T07:57:13.583Z,94700.00
2023-04-02T07:58:13.644Z,94698.00
2023-04-02T07:59:13.731Z,94698.00
2023-04-02T08:00:14.113Z,94698.00
2023-04-02T08:01:14.151Z,94700.00
2023-04-02T08:02:14.249Z,94698.00
2023-04-02T08:03:14.215Z,94698.00
2023-04-02T08:04:14.179Z,94698.00
2023-04-02T08:05:14.162Z,94700.00
2023-04-02T08:06:14.149Z,94700.00
2023-04-02T08:07:14.157Z,94700.00
2023-04-02T08:08:14.278Z,94694.00
2023-04-02T08:09:14.286Z,94702.00
2023-04-02T08:10:14.345Z,94700.00
2023-04-02T08:11:14.414Z,94704.00
2023-04-02T08:12:15.186Z,94700.00
2023-04-02T08:13:14.629Z,94702.00
2023-04-02T08:14:14.607Z,94702.00
2023-04-02T08:15:14.673Z,94704.00
2023-04-02T08:16:14.836Z,94706.00
2023-04-02T08:17:15.136Z,94706.00
2023-04-02T08:18:15.192Z,94704.00
2023-04-02T08:19:15.208Z,94704.00
2023-04-02T08:20:15.192Z,94702.00
2023-04-02T08:21:16.458Z,94702.00
2023-04-02T08:22:18.131Z,94706.00
2023-04-02T08:23:15.297Z,94706.00
2023-04-02T08:24:15.635Z,94704.00
2023-04-02T08:25:15.266Z,94702.00
2023-04-02T08:26:15.253Z,94704.00
2023-04-02T08:27:15.265Z,94706.00
2023-04-02T08:28:15.253Z,94706.00
2023-04-02T08:29:15.252Z,94704.00
2023-04-02T08:30:16.134Z,94708.00
2023-04-02T08:31:15.342Z,94708.00
2023-04-02T08:32:15.266Z,94706.00
2023-04-02T08:33:15.231Z,94706.00
2023-04-02T08:34:15.642Z,94704.00
2023-04-02T08:35:15.242Z,94706.00
2023-04-02T08:36:15.303Z,94704.00
2023-04-02T08:37:15.244Z,94706.00
2023-04-02T08:38:15.246Z,94706.00
2023-04-02T08:39:15.274Z,94708.00
2023-04-02T08:40:15.251Z,94708.00
2023-04-02T08:41:15.254Z,94708.00
2023-04-02T08:42:16.136Z,94706.00
2023-04-02T08:43:16.138Z,94708.00
2023-04-02T08:44:15.427Z,94708.00
2023-04-02T08:46:15.517Z,94708.00
2023-04-02T08:47:15.552Z,94708.00
2023-04-02T08:48:15.480Z,94708.00
2023-04-02T08:49:15.480Z,94710.00
2023-04-02T08:50:15.471Z,94708.00
2023-04-02T08:51:15.476Z,94708.00
2023-04-02T08:52:15.472Z,94708.00
2023-04-02T08:53:15.472Z,94708.00
2023-04-02T08:54:15.476Z,94706.00
2023-04-02T08:55:15.464Z,94704.00
2023-04-02T08:56:15.458Z,94706.00
2023-04-02T08:57:15.459Z,94708.00
2023-04-02T08:58:15.458Z,94704.00
2023-04-02T08:59:15.446Z,94706.00
2023-04-02T09:00:15.453Z,94704.00
2023-04-02T09:01:15.466Z,94706.00
2023-04-02T09:02:15.648Z,94708.00
2023-04-02T09:03:18.175Z,94708.00
2023-04-02T09:04:15.490Z,94708.00
2023-04-02T09:05:18.152Z,94708.00
2023-04-02T09:06:16.694Z,94708.00
2023-04-02T09:07:16.148Z,94706.00
2023-04-02T09:08:22.145Z,94706.00
2023-04-02T09:09:15.441Z,94706.00
2023-04-02T09:10:15.426Z,94706.00
2023-04-02T09:11:15.648Z,94706.00
2023-04-02T09:12:18.144Z,94706.00
2023-04-02T09:13:15.402Z,94708.00
2023-04-02T09:14:15.400Z,94708.00
2023-04-02T09:15:15.404Z,94710.00
2023-04-02T09:16:15.456Z,94712.00
2023-04-02T09:17:15.399Z,94710.00
2023-04-02T09:18:15.443Z,94712.00
2023-04-02T09:19:15.412Z,94710.00
2023-04-02T09:20:15.384Z,94712.00
2023-04-02T09:21:15.386Z,94712.00
2023-04-02T09:22:15.390Z,94710.00
2023-04-02T09:23:15.384Z,94714.00
2023-04-02T09:24:15.377Z,94712.00
2023-04-02T09:25:15.411Z,94710.00
2023-04-02T09:26:15.370Z,94710.00
2023-04-02T09:27:15.364Z,94708.00
2023-04-02T09:28:15.353Z,94708.00
2023-04-02T09:29:15.669Z,94710.00
2023-04-02T09:30:15.349Z,94710.00
2023-04-02T09:31:16.207Z,94706.00
2023-04-02T09:32:15.333Z,94708.00
2023-04-02T09:33:15.329Z,94710.00
2023-04-02T09:34:15.662Z,94708.00
2023-04-02T09:35:25.280Z,94710.00
2023-04-02T09:36:16.129Z,94708.00
2023-04-02T09:37:15.303Z,94710.00
2023-04-02T09:38:15.324Z,94710.00
2023-04-02T09:39:15.346Z,94710.00
2023-04-02T09:40:15.348Z,94710.00
2023-04-02T09:41:15.284Z,94708.00
2023-04-02T09:42:15.283Z,94712.00
2023-04-02T09:43:15.281Z,94712.00
2023-04-02T09:44:15.284Z,94712.00
2023-04-02T09:45:15.274Z,94712.00
2023-04-02T09:46:15.288Z,94714.00
2023-04-02T09:47:15.274Z,94714.00
2023-04-02T09:48:18.181Z,94714.00
2023-04-02T09:49:15.327Z,94714.00
2023-04-02T09:50:16.165Z,94716.00
2023-04-02T09:51:15.368Z,94716.00
2023-04-02T09:52:15.307Z,94716.00
2023-04-02T09:53:15.300Z,94714.00
2023-04-02T09:54:15.294Z,94716.00
2023-04-02T09:55:15.292Z,94716.00
2023-04-02T09:56:15.289Z,94714.00
2023-04-02T09:57:15.301Z,94716.00
2023-04-02T09:58:15.300Z,94718.00
2023-04-02T09:59:15.695Z,94718.00
2023-04-02T10:00:29.674Z,94716.00
2023-04-02T10:01:16.264Z,94718.00
2023-04-02T10:02:15.295Z,94718.00
2023-04-02T10:03:15.287Z,94716.00
2023-04-02T10:04:18.214Z,94716.00
2023-04-02T10:05:18.797Z,94716.00
2023-04-02T10:06:15.278Z,94716.00
2023-04-02T10:07:15.292Z,94722.00
2023-04-02T10:08:16.166Z,94720.00
2023-04-02T10:09:15.266Z,94724.00
2023-04-02T10:10:15.271Z,94722.00
2023-04-02T10:11:18.166Z,94722.00
2023-04-02T10:12:15.264Z,94720.00
2023-04-02T10:13:16.170Z,94724.00
2023-04-02T10:14:15.272Z,94724.00
2023-04-02T10:15:15.271Z,94722.00
2023-04-02T10:16:15.292Z,94722.00
2023-04-02T10:17:15.385Z,94720.00
2023-04-02T10:18:15.263Z,94722.00
2023-04-02T10:19:15.268Z,94722.00
2023-04-02T10:20:15.261Z,94720.00
2023-04-02T10:21:18.179Z,94720.00
2023-04-02T10:22:15.261Z,94718.00
2023-04-02T10:23:15.277Z,94718.00
2023-04-02T10:24:15.327Z,94718.00
2023-04-02T10:25:15.238Z,94716.00
2023-04-02T10:26:15.231Z,94716.00
2023-04-02T10:27:16.174Z,94720.00
2023-04-02T10:28:15.243Z,94716.00
2023-04-02T10:29:15.241Z,94722.00
2023-04-02T10:30:15.238Z,94720.00
2023-04-02T10:31:15.277Z,94722.00
2023-04-02T10:32:15.239Z,94722.00
2023-04-02T10:33:15.676Z,94724.00
2023-04-02T10:34:15.263Z,94724.00
2023-04-02T10:35:15.240Z,94726.00
2023-04-02T10:36:15.296Z,94726.00
2023-04-02T10:37:15.244Z,94732.00
2023-04-02T10:38:15.683Z,94730.00
2023-04-02T10:39:16.205Z,94730.00
2023-04-02T10:40:15.329Z,94732.00
2023-04-02T10:41:15.380Z,94730.00
2023-04-02T10:42:15.686Z,94733.00
2023-04-02T10:43:15.485Z,94730.00
2023-04-02T10:44:20.130Z,94730.00
2023-04-02T10:45:15.537Z,94730.00
2023-04-02T10:46:15.609Z,94732.00
2023-04-02T10:47:15.534Z,94733.00
2023-04-02T10:48:15.523Z,94732.00
2023-04-02T10:49:15.577Z,94733.00
2023-04-02T10:50:15.534Z,94735.00
2023-04-02T10:51:15.503Z,94735.00
2023-04-02T10:52:15.504Z,94737.00
2023-04-02T10:53:15.493Z,94737.00
2023-04-02T10:54:15.557Z,94737.00
2023-04-02T10:55:15.513Z,94739.00
2023-04-02T10:56:15.476Z,94739.00
2023-04-02T10:57:15.477Z,94739.00
2023-04-02T10:58:15.466Z,94741.00
2023-04-02T10:59:15.465Z,94741.00
2023-04-02T11:00:16.215Z,94741.00
2023-04-02T11:01:15.479Z,94745.00
2023-04-02T11:02:15.513Z,94745.00
2023-04-02T11:03:15.526Z,94747.00
2023-04-02T11:04:15.449Z,94749.00
2023-04-02T11:05:15.449Z,94751.00
2023-04-02T11:06:16.189Z,94749.00
2023-04-02T11:07:15.425Z,94751.00
2023-04-02T11:08:15.428Z,94751.00
2023-04-02T11:09:15.414Z,94755.00
2023-04-02T11:10:15.413Z,94753.00
2023-04-02T11:11:15.486Z,94753.00
2023-04-02T11:12:15.513Z,94751.00
2023-04-02T11:13:15.578Z,94751.00
2023-04-02T11:14:15.693Z,94753.00
2023-04-02T11:15:15.683Z,94749.00
2023-04-02T11:16:15.796Z,94753.00
2023-04-02T11:17:15.776Z,94753.00
2023-04-02T11:18:15.839Z,94755.00
2023-04-02T11:19:15.896Z,94751.00
2023-04-02T11:20:15.934Z,94753.00
2023-04-02T11:21:16.023Z,94753.00
2023-04-02T11:22:16.722Z,94755.00
2023-04-02T11:23:16.103Z,94757.00
2023-04-02T11:24:16.151Z,94755.00
2023-04-02T11:25:16.213Z,94755.00
2023-04-02T11:26:16.268Z,94763.00
2023-04-02T11:27:16.352Z,94759.00
2023-04-02T11:28:16.371Z,94761.00
2023-04-02T11:29:16.457Z,94765.00
2023-04-02T11:30:16.493Z,94765.00
2023-04-02T11:31:16.600Z,94767.00
2023-04-02T11:32:16.617Z,94767.00
2023-04-02T11:33:18.679Z,94767.00
2023-04-02T11:34:16.705Z,94769.00
2023-04-02T11:35:16.752Z,94771.00
2023-04-02T11:36:16.837Z,94775.00
2023-04-02T11:37:16.836Z,94779.00
2023-04-02T11:38:16.937Z,94779.00
2023-04-02T11:39:17.811Z,94779.00
2023-04-02T11:40:17.007Z,94779.00
2023-04-02T11:41:17.073Z,94781.00
2023-04-02T11:42:17.730Z,94781.00
2023-04-02T11:43:17.167Z,94783.00
2023-04-02T11:44:17.274Z,94785.00
2023-04-02T11:45:20.233Z,94785.00
2023-04-02T11:46:17.398Z,94787.00
2023-04-02T11:47:17.293Z,94788.00
2023-04-02T11:48:17.273Z,94790.00
2023-04-02T11:49:17.264Z,94787.00
2023-04-02T11:50:17.263Z,94787.00
2023-04-02T11:51:18.362Z,94790.00
2023-04-02T11:52:17.253Z,94788.00
2023-04-02T11:53:17.248Z,94788.00
2023-04-02T11:54:17.286Z,94792.00
2023-04-02T11:55:17.247Z,94788.00
2023-04-02T11:56:17.241Z,94790.00
2023-04-02T11:57:18.077Z,94790.00
2023-04-02T11:58:17.261Z,94792.00
2023-04-02T11:59:17.233Z,94792.00
2023-04-02T12:00:18.188Z,94794.00
2023-04-02T12:01:17.219Z,94792.00
2023-04-02T12:02:17.271Z,94792.00
2023-04-02T12:03:17.268Z,94792.00
2023-04-02T12:04:17.225Z,94792.00
2023-04-02T12:05:17.278Z,94792.00
2023-04-02T12:06:17.220Z,94790.00
2023-04-02T12:07:17.238Z,94790.00
2023-04-02T12:08:17.301Z,94790.00
2023-04-02T12:09:17.350Z,94792.00
2023-04-02T12:10:17.455Z,94790.00
2023-04-02T12:11:17.483Z,94788.00
2023-04-02T12:12:17.536Z,94788.00
2023-04-02T12:13:17.582Z,94787.00
2023-04-02T12:14:17.674Z,94785.00
2023-04-02T12:15:17.705Z,94783.00
2023-04-02T12:16:17.776Z,94787.00
2023-04-02T12:17:17.828Z,94787.00
2023-04-02T12:18:17.868Z,94785.00
2023-04-02T12:19:17.909Z,94788.00
2023-04-02T12:20:17.973Z,94788.00
2023-04-02T12:21:18.776Z,94790.00
2023-04-02T12:22:18.716Z,94792.00
2023-04-02T12:23:18.133Z,94790.00
2023-04-02T12:24:18.194Z,94792.00
2023-04-02T12:25:18.257Z,94794.00
2023-04-02T12:26:18.297Z,94796.00
2023-04-02T12:27:19.293Z,94792.00
2023-04-02T12:28:18.387Z,94788.00
2023-04-02T12:29:19.215Z,94794.00
2023-04-02T12:30:18.497Z,94794.00
2023-04-02T12:31:18.544Z,94794.00
2023-04-02T12:32:18.605Z,94796.00
2023-04-02T12:33:18.643Z,94796.00